Time;durP1;ratioP1;P1;durP2;ratioP2;P2;SDS_P1;SDS_P2;PMS_P1;PMS_P2;Temp;Humidity;BMP_temperature;BMP_pressure;BME280_temperature;BME280_humidity;BME280_pressure;Samples;Min_cycle;Max_cycle;Signal;HPM_P1;HPM_P2
2021/03/27 00:01:42;;;;;;;5.93;3.17;;;;;;;;;;5042027;28;20185;-59
2021/03/27 00:04:15;;;;;;;5.17;3.60;;;;;;;;;;5059801;28;20702;-60
2021/03/27 00:06:52;;;;;;;5.07;3.27;;;;;;;;;;5059123;28;20644;-59
2021/03/27 00:09:24;;;;;;;5.07;3.63;;;;;;;;;;5056228;28;20165;-60
2021/03/27 00:12:03;;;;;;;4.30;3.40;;;;;;;;;;5048565;28;20173;-60
2021/03/27 00:14:35;;;;;;;4.10;3.10;;;;;;;;;;5045514;28;20184;-60
2021/03/27 00:17:19;;;;;;;3.00;2.70;;;;;;;;;;5056059;28;20180;-60
2021/03/27 00:19:48;;;;;;;3.57;2.60;;;;;;;;;;5053457;28;20185;-60
2021/03/27 00:22:21;;;;;;;8.43;2.37;;;;;;;;;;5045453;28;20179;-60
2021/03/27 00:24:58;;;;;;;3.58;2.13;;;;;;;;;;5054611;28;20420;-60
2021/03/27 00:27:30;;;;;;;2.30;2.00;;;;;;;;;;5067053;28;20581;-59
2021/03/27 00:30:05;;;;;;;3.50;2.23;;;;;;;;;;5035559;28;20165;-59
2021/03/27 00:32:42;;;;;;;2.67;1.80;;;;;;;;;;5050978;28;20172;-59
2021/03/27 00:35:11;;;;;;;2.13;1.90;;;;;;;;;;5052400;28;20165;-60
2021/03/27 00:37:38;;;;;;;2.17;1.70;;;;;;;;;;5049748;28;20176;-59
2021/03/27 00:40:07;;;;;;;1.93;1.73;;;;;;;;;;5034670;28;20217;-59
2021/03/27 00:42:39;;;;;;;2.00;1.80;;;;;;;;;;5054775;28;20191;-61
2021/03/27 00:45:28;;;;;;;2.40;2.07;;;;;;;;;;5035706;28;20196;-60
2021/03/27 00:47:56;;;;;;;2.43;2.00;;;;;;;;;;5042048;28;20340;-59
2021/03/27 00:50:28;;;;;;;2.20;2.00;;;;;;;;;;5051209;28;20209;-59
2021/03/27 00:52:56;;;;;;;2.27;1.90;;;;;;;;;;5059174;28;20199;-59
2021/03/27 00:55:29;;;;;;;2.47;2.27;;;;;;;;;;5052343;28;20172;-59
2021/03/27 00:57:57;;;;;;;2.57;2.37;;;;;;;;;;5065510;28;20192;-59
2021/03/27 01:00:33;;;;;;;2.50;2.30;;;;;;;;;;5047258;28;20187;-58
2021/03/27 01:03:04;;;;;;;2.87;2.63;;;;;;;;;;5052014;28;20889;-59
2021/03/27 01:05:31;;;;;;;3.60;2.60;;;;;;;;;;5021938;28;20181;-61
2021/03/27 01:07:58;;;;;;;3.00;2.73;;;;;;;;;;5050171;28;20193;-59
2021/03/27 01:10:43;;;;;;;3.97;3.20;;;;;;;;;;5038543;28;20181;-58
2021/03/27 01:13:11;;;;;;;3.40;3.10;;;;;;;;;;5056693;28;20165;-59
2021/03/27 01:15:44;;;;;;;3.03;2.73;;;;;;;;;;5048285;28;20181;-58
2021/03/27 01:18:14;;;;;;;3.37;2.47;;;;;;;;;;5053233;28;21565;-59
2021/03/27 01:20:42;;;;;;;3.00;2.80;;;;;;;;;;5051405;28;20758;-59
2021/03/27 01:23:10;;;;;;;4.13;2.80;;;;;;;;;;5053948;28;20235;-59
2021/03/27 01:25:37;;;;;;;6.10;2.53;;;;;;;;;;5043792;28;20173;-59
2021/03/27 01:28:08;;;;;;;2.53;2.33;;;;;;;;;;5047438;28;20236;-59
2021/03/27 01:30:34;;;;;;;2.80;2.50;;;;;;;;;;5041994;28;20185;-59
2021/03/27 01:33:06;;;;;;;3.80;2.97;;;;;;;;;;5044950;28;20169;-59
2021/03/27 01:35:34;;;;;;;3.13;2.83;;;;;;;;;;5060293;28;20213;-59
2021/03/27 01:38:07;;;;;;;2.97;2.53;;;;;;;;;;5052485;28;20184;-60
2021/03/27 01:40:42;;;;;;;3.37;3.07;;;;;;;;;;5052414;28;20177;-58
2021/03/27 01:43:20;;;;;;;5.13;2.83;;;;;;;;;;5056326;28;20256;-60
2021/03/27 01:45:52;;;;;;;3.60;2.47;;;;;;;;;;5052254;28;20187;-58
2021/03/27 01:48:48;;;;;;;3.43;3.13;;;;;;;;;;5048912;28;20296;-57
2021/03/27 01:51:29;;;;;;;3.70;2.90;;;;;;;;;;5023898;28;20196;-59
2021/03/27 01:53:56;;;;;;;2.60;2.40;;;;;;;;;;5064843;28;20268;-59
2021/03/27 01:56:31;;;;;;;3.13;2.50;;;;;;;;;;5069383;28;20196;-61
2021/03/27 01:59:06;;;;;;;3.43;2.37;;;;;;;;;;5046358;28;20637;-57
2021/03/27 02:01:34;;;;;;;4.27;2.40;;;;;;;;;;5038543;28;20274;-57
2021/03/27 02:04:06;;;;;;;4.30;2.47;;;;;;;;;;5052451;28;20170;-59
2021/03/27 02:06:42;;;;;;;3.53;1.87;;;;;;;;;;5051998;28;20212;-59
2021/03/27 02:09:18;;;;;;;4.00;2.33;;;;;;;;;;5042740;28;20653;-59
2021/03/27 02:11:50;;;;;;;3.17;1.90;;;;;;;;;;5015541;28;20219;-59
2021/03/27 02:14:22;;;;;;;1.93;1.53;;;;;;;;;;5053167;28;20179;-59
2021/03/27 02:16:57;;;;;;;3.97;1.87;;;;;;;;;;5052888;28;20231;-60
2021/03/27 02:19:40;;;;;;;3.23;1.83;;;;;;;;;;5054183;28;20185;-59
2021/03/27 02:22:13;;;;;;;2.77;1.87;;;;;;;;;;5054094;28;20952;-60
2021/03/27 02:25:02;;;;;;;3.70;1.97;;;;;;;;;;5063833;28;20173;-60
2021/03/27 02:27:32;;;;;;;4.40;1.80;;;;;;;;;;5014160;28;20225;-59
2021/03/27 02:30:03;;;;;;;2.40;1.53;;;;;;;;;;5033492;28;20178;-59
2021/03/27 02:32:43;;;;;;;1.87;1.30;;;;;;;;;;5050425;28;20169;-59
2021/03/27 02:35:15;;;;;;;2.17;1.40;;;;;;;;;;5046106;28;20173;-59
2021/03/27 02:38:00;;;;;;;2.07;1.30;;;;;;;;;;5039876;28;20255;-59
2021/03/27 02:40:31;;;;;;;2.77;1.33;;;;;;;;;;5031765;28;20169;-59
2021/03/27 02:43:21;;;;;;;2.93;1.83;;;;;;;;;;5053672;28;20575;-59
2021/03/27 02:45:50;;;;;;;2.37;1.50;;;;;;;;;;5042527;28;20169;-59
2021/03/27 02:48:21;;;;;;;1.70;1.53;;;;;;;;;;5044843;28;20233;-59
2021/03/27 02:50:47;;;;;;;3.27;1.70;;;;;;;;;;5029399;28;20578;-59
2021/03/27 02:53:18;;;;;;;2.63;1.50;;;;;;;;;;5028129;28;20182;-58
2021/03/27 02:55:44;;;;;;;1.17;1.10;;;;;;;;;;5032054;28;20177;-59
2021/03/27 02:58:16;;;;;;;3.27;1.33;;;;;;;;;;5042806;28;20169;-60
2021/03/27 03:00:56;;;;;;;5.00;1.70;;;;;;;;;;5031324;28;20176;-58
2021/03/27 03:03:41;;;;;;;3.00;1.40;;;;;;;;;;5053342;28;20681;-58
2021/03/27 03:06:17;;;;;;;2.30;1.27;;;;;;;;;;5050966;28;20181;-60
2021/03/27 03:08:51;;;;;;;2.73;1.50;;;;;;;;;;5051350;28;20214;-59
2021/03/27 03:11:17;;;;;;;3.43;1.70;;;;;;;;;;5050681;28;20162;-59
2021/03/27 03:14:07;;;;;;;4.80;1.70;;;;;;;;;;5050300;28;20189;-58
2021/03/27 03:16:53;;;;;;;3.10;1.60;;;;;;;;;;5044568;28;20198;-59
2021/03/27 03:19:24;;;;;;;1.27;1.17;;;;;;;;;;5024769;28;20197;-59
2021/03/27 03:22:09;;;;;;;3.80;1.50;;;;;;;;;;5049052;28;20180;-59
2021/03/27 03:24:38;;;;;;;5.23;1.77;;;;;;;;;;5050764;28;20695;-59
2021/03/27 03:27:04;;;;;;;2.30;1.30;;;;;;;;;;5050780;28;20542;-58
2021/03/27 03:29:39;;;;;;;1.37;1.20;;;;;;;;;;5035471;28;20696;-58
2021/03/27 03:32:09;;;;;;;2.00;1.40;;;;;;;;;;5065749;28;20216;-59
2021/03/27 03:34:39;;;;;;;2.93;1.40;;;;;;;;;;5054122;28;20507;-59
2021/03/27 03:37:14;;;;;;;3.10;1.30;;;;;;;;;;5037916;28;20174;-60
2021/03/27 03:39:57;;;;;;;3.90;1.60;;;;;;;;;;5028053;28;20215;-61
2021/03/27 03:42:23;;;;;;;1.87;1.30;;;;;;;;;;5052216;28;20168;-59
2021/03/27 03:44:53;;;;;;;2.10;1.23;;;;;;;;;;5037496;28;20190;-59
2021/03/27 03:47:26;;;;;;;3.93;1.40;;;;;;;;;;5039049;28;20208;-59
2021/03/27 03:50:11;;;;;;;2.27;1.40;;;;;;;;;;5035059;28;20202;-58
2021/03/27 03:52:40;;;;;;;2.93;1.63;;;;;;;;;;5055744;28;20179;-59
2021/03/27 03:55:13;;;;;;;2.97;1.70;;;;;;;;;;5048072;28;20188;-59
2021/03/27 03:57:58;;;;;;;2.43;1.47;;;;;;;;;;5055523;28;20287;-62
2021/03/27 04:00:38;;;;;;;2.87;1.63;;;;;;;;;;5030803;28;20177;-58
2021/03/27 04:03:21;;;;;;;1.57;1.20;;;;;;;;;;5043991;28;20208;-60
2021/03/27 04:05:50;;;;;;;2.93;1.93;;;;;;;;;;5031911;28;20731;-60
2021/03/27 04:08:28;;;;;;;4.77;1.40;;;;;;;;;;5050282;28;20255;-59
2021/03/27 04:10:59;;;;;;;2.40;1.33;;;;;;;;;;5049480;28;20170;-59
2021/03/27 04:13:35;;;;;;;2.83;1.50;;;;;;;;;;5048613;28;20240;-59
2021/03/27 04:16:11;;;;;;;3.10;1.70;;;;;;;;;;5012437;28;20181;-59
2021/03/27 04:18:55;;;;;;;4.20;1.53;;;;;;;;;;5043259;28;20188;-59
2021/03/27 04:21:25;;;;;;;2.90;1.60;;;;;;;;;;5032809;28;21288;-59
2021/03/27 04:24:00;;;;;;;1.87;1.40;;;;;;;;;;5051382;28;20241;-60
2021/03/27 04:26:44;;;;;;;2.43;1.70;;;;;;;;;;5055706;28;20173;-59
2021/03/27 04:29:28;;;;;;;3.50;1.40;;;;;;;;;;5059194;28;20176;-59
2021/03/27 04:32:13;;;;;;;6.23;2.17;;;;;;;;;;5063129;28;20546;-59
2021/03/27 04:34:43;;;;;;;2.60;1.60;;;;;;;;;;5053436;28;20216;-59
2021/03/27 04:37:11;;;;;;;2.40;1.53;;;;;;;;;;5054525;28;20287;-59
2021/03/27 04:39:46;;;;;;;2.93;1.73;;;;;;;;;;5043452;28;20217;-59
2021/03/27 04:42:19;;;;;;;5.57;2.07;;;;;;;;;;5037946;28;20185;-59
2021/03/27 04:44:51;;;;;;;4.93;1.93;;;;;;;;;;5021144;28;20764;-59
2021/03/27 04:47:19;;;;;;;3.07;1.50;;;;;;;;;;5034573;28;20662;-59
2021/03/27 04:49:53;;;;;;;4.53;1.50;;;;;;;;;;5034013;28;20193;-59
2021/03/27 04:52:32;;;;;;;2.57;1.60;;;;;;;;;;5020934;28;20173;-59
2021/03/27 04:55:01;;;;;;;2.67;1.60;;;;;;;;;;5046933;28;20182;-58
2021/03/27 04:57:35;;;;;;;6.70;1.70;;;;;;;;;;5034329;28;20271;-60
2021/03/27 05:00:12;;;;;;;2.83;1.43;;;;;;;;;;5040454;28;20285;-59
2021/03/27 05:03:05;;;;;;;2.80;1.57;;;;;;;;;;5024272;28;20201;-59
2021/03/27 05:05:43;;;;;;;4.40;1.77;;;;;;;;;;4989164;28;20190;-59
2021/03/27 05:08:09;;;;;;;3.50;1.50;;;;;;;;;;5038782;28;20836;-59
2021/03/27 05:10:48;;;;;;;6.77;1.70;;;;;;;;;;5031711;28;20267;-59
2021/03/27 05:13:27;;;;;;;4.97;1.77;;;;;;;;;;5038535;28;20583;-59
2021/03/27 05:15:56;;;;;;;2.60;1.80;;;;;;;;;;5015946;28;20197;-59
2021/03/27 05:18:35;;;;;;;3.67;1.57;;;;;;;;;;5031616;28;20186;-60
2021/03/27 05:21:20;;;;;;;3.50;1.47;;;;;;;;;;5022815;28;20244;-60
2021/03/27 05:23:53;;;;;;;1.47;1.30;;;;;;;;;;5034595;28;20690;-58
2021/03/27 05:26:22;;;;;;;3.05;1.80;;;;;;;;;;5029394;28;20182;-59
2021/03/27 05:28:51;;;;;;;2.70;1.70;;;;;;;;;;5034950;28;20230;-59
2021/03/27 05:31:17;;;;;;;5.03;1.43;;;;;;;;;;5047396;28;20173;-61
2021/03/27 05:33:52;;;;;;;2.73;1.60;;;;;;;;;;5034766;28;20186;-59
2021/03/27 05:36:18;;;;;;;2.63;1.67;;;;;;;;;;5019471;28;20593;-59
2021/03/27 05:38:54;;;;;;;5.30;2.13;;;;;;;;;;5020694;28;20221;-59
2021/03/27 05:41:37;;;;;;;3.87;1.50;;;;;;;;;;5033944;28;20169;-59
2021/03/27 05:44:06;;;;;;;4.67;1.77;;;;;;;;;;5052792;28;20611;-58
2021/03/27 05:46:32;;;;;;;1.67;1.40;;;;;;;;;;5035180;28;20235;-61
2021/03/27 05:49:13;;;;;;;1.90;1.30;;;;;;;;;;5042671;28;20177;-59
2021/03/27 05:52:08;;;;;;;5.60;2.00;;;;;;;;;;5036746;28;20240;-60
2021/03/27 05:54:43;;;;;;;2.87;1.40;;;;;;;;;;5051416;28;20245;-59
2021/03/27 05:57:09;;;;;;;5.83;1.50;;;;;;;;;;5030309;28;20181;-59
2021/03/27 05:59:41;;;;;;;3.33;1.37;;;;;;;;;;5051939;28;20565;-59
2021/03/27 06:02:10;;;;;;;6.00;1.90;;;;;;;;;;5051698;28;20177;-60
2021/03/27 06:04:45;;;;;;;3.53;1.70;;;;;;;;;;5037658;28;20230;-59
2021/03/27 06:07:30;;;;;;;4.22;1.73;;;;;;;;;;5048950;28;20434;-59
2021/03/27 06:09:59;;;;;;;5.00;2.00;;;;;;;;;;5049484;28;20620;-59
2021/03/27 06:12:44;;;;;;;4.07;2.27;;;;;;;;;;5056588;28;20177;-57
2021/03/27 06:15:13;;;;;;;4.67;1.90;;;;;;;;;;5037017;28;20173;-58
2021/03/27 06:18:08;;;;;;;4.47;2.03;;;;;;;;;;5043878;28;20177;-59
2021/03/27 06:20:49;;;;;;;2.73;1.77;;;;;;;;;;4969225;28;20211;-58
2021/03/27 06:23:34;;;;;;;4.50;1.97;;;;;;;;;;5040661;28;20255;-59
2021/03/27 06:26:06;;;;;;;6.37;1.93;;;;;;;;;;5041178;28;20656;-60
2021/03/27 06:28:46;;;;;;;4.53;1.83;;;;;;;;;;5048257;28;20554;-59
2021/03/27 06:31:17;;;;;;;3.80;1.80;;;;;;;;;;5033967;28;20161;-59
2021/03/27 06:33:59;;;;;;;5.47;2.83;;;;;;;;;;5045553;28;20177;-59
2021/03/27 06:36:36;;;;;;;3.97;2.00;;;;;;;;;;5035556;28;20193;-58
2021/03/27 06:39:08;;;;;;;6.63;2.47;;;;;;;;;;5049324;28;20237;-59
2021/03/27 06:41:53;;;;;;;6.60;2.50;;;;;;;;;;5065136;28;20196;-59
2021/03/27 06:44:42;;;;;;;4.33;2.00;;;;;;;;;;5035306;28;20174;-59
2021/03/27 06:47:28;;;;;;;3.17;1.80;;;;;;;;;;5050822;28;20208;-59
2021/03/27 06:50:06;;;;;;;5.77;1.93;;;;;;;;;;5041571;28;20244;-59
2021/03/27 06:52:48;;;;;;;4.90;2.20;;;;;;;;;;5038628;28;20193;-60
2021/03/27 06:55:20;;;;;;;5.27;2.20;;;;;;;;;;5036668;28;20625;-59
2021/03/27 06:58:05;;;;;;;3.73;2.17;;;;;;;;;;5044215;28;20964;-59
2021/03/27 07:00:43;;;;;;;4.77;1.83;;;;;;;;;;5031587;28;20232;-59
2021/03/27 07:03:15;;;;;;;7.43;2.23;;;;;;;;;;5035984;28;20236;-59
2021/03/27 07:06:00;;;;;;;5.17;2.57;;;;;;;;;;5024106;28;20193;-60
2021/03/27 07:08:32;;;;;;;4.77;2.20;;;;;;;;;;5046418;28;20671;-58
2021/03/27 07:11:16;;;;;;;3.57;2.00;;;;;;;;;;5020945;28;21185;-59
2021/03/27 07:13:58;;;;;;;5.33;2.10;;;;;;;;;;5018483;28;20196;-58
2021/03/27 07:16:33;;;;;;;2.57;2.10;;;;;;;;;;5037134;28;20177;-58
2021/03/27 07:19:08;;;;;;;3.47;1.60;;;;;;;;;;5042080;28;20631;-58
2021/03/27 07:21:38;;;;;;;4.03;1.87;;;;;;;;;;5042466;28;20177;-58
2021/03/27 07:24:05;;;;;;;4.03;2.00;;;;;;;;;;5029250;28;20570;-59
2021/03/27 07:26:49;;;;;;;5.37;1.70;;;;;;;;;;5012270;28;20190;-59
2021/03/27 07:29:30;;;;;;;4.03;1.40;;;;;;;;;;5037227;28;20174;-59
2021/03/27 07:32:08;;;;;;;3.30;1.50;;;;;;;;;;5034500;28;20256;-58
2021/03/27 07:34:47;;;;;;;2.20;1.40;;;;;;;;;;5030745;28;20177;-59
2021/03/27 07:37:13;;;;;;;3.97;1.87;;;;;;;;;;5038096;28;20210;-59
2021/03/27 07:39:42;;;;;;;3.50;1.60;;;;;;;;;;5034848;28;20227;-59
2021/03/27 07:42:27;;;;;;;4.37;1.07;;;;;;;;;;5045048;28;20671;-59
2021/03/27 07:45:01;;;;;;;2.40;1.17;;;;;;;;;;5048633;28;20185;-59
2021/03/27 07:47:36;;;;;;;2.60;1.40;;;;;;;;;;5032241;28;20296;-59
2021/03/27 07:50:20;;;;;;;2.40;1.30;;;;;;;;;;5045649;28;20582;-59
2021/03/27 07:53:05;;;;;;;1.57;1.10;;;;;;;;;;5055239;28;20186;-59
2021/03/27 07:55:31;;;;;;;4.53;1.33;;;;;;;;;;5039798;28;20177;-59
2021/03/27 07:58:04;;;;;;;5.03;1.40;;;;;;;;;;5049240;28;20203;-59
2021/03/27 08:00:37;;;;;;;2.13;1.03;;;;;;;;;;5050993;28;20181;-60
2021/03/27 08:03:24;;;;;;;2.73;1.23;;;;;;;;;;5062206;28;20184;-59
2021/03/27 08:06:10;;;;;;;2.97;1.40;;;;;;;;;;5048759;28;20217;-60
2021/03/27 08:08:55;;;;;;;3.83;1.60;;;;;;;;;;5051225;28;20221;-59
2021/03/27 08:11:39;;;;;;;3.03;1.20;;;;;;;;;;5040152;28;20583;-59
2021/03/27 08:14:07;;;;;;;2.90;1.43;;;;;;;;;;5046174;28;20673;-59
2021/03/27 08:16:45;;;;;;;3.27;1.30;;;;;;;;;;5050652;28;20219;-61
2021/03/27 08:19:26;;;;;;;2.03;1.27;;;;;;;;;;5049783;28;20253;-59
2021/03/27 08:22:09;;;;;;;2.77;1.43;;;;;;;;;;5031043;28;20184;-60
2021/03/27 08:24:44;;;;;;;2.13;1.27;;;;;;;;;;5048606;28;20542;-59
2021/03/27 08:27:29;;;;;;;3.17;1.67;;;;;;;;;;5036788;28;20201;-59
2021/03/27 08:30:14;;;;;;;3.07;1.57;;;;;;;;;;5046531;28;20177;-59
2021/03/27 08:32:40;;;;;;;2.47;1.40;;;;;;;;;;5042723;28;20189;-60
2021/03/27 08:35:06;;;;;;;3.40;1.40;;;;;;;;;;5044826;28;20176;-59
2021/03/27 08:37:51;;;;;;;2.70;1.53;;;;;;;;;;5034443;28;20637;-59
2021/03/27 08:40:35;;;;;;;3.43;1.70;;;;;;;;;;5073215;28;20228;-59
2021/03/27 08:43:22;;;;;;;5.07;2.13;;;;;;;;;;5035104;28;20190;-60
2021/03/27 08:46:03;;;;;;;2.90;1.73;;;;;;;;;;5049298;28;20217;-59
2021/03/27 08:48:39;;;;;;;3.63;1.87;;;;;;;;;;5033349;28;20339;-59
2021/03/27 08:51:23;;;;;;;4.33;1.63;;;;;;;;;;5054333;28;20613;-59
2021/03/27 08:54:08;;;;;;;3.70;2.43;;;;;;;;;;5061732;28;20173;-59
2021/03/27 08:56:53;;;;;;;5.37;2.43;;;;;;;;;;5033345;28;20217;-59
2021/03/27 08:59:34;;;;;;;2.30;1.50;;;;;;;;;;5058836;28;20192;-60
2021/03/27 09:02:18;;;;;;;4.23;1.87;;;;;;;;;;5047391;28;20177;-59
2021/03/27 09:04:48;;;;;;;3.33;1.67;;;;;;;;;;5049526;28;20185;-60
2021/03/27 09:07:17;;;;;;;3.50;2.43;;;;;;;;;;5053692;28;20675;-59
2021/03/27 09:10:06;;;;;;;3.20;1.87;;;;;;;;;;5038843;28;20297;-61
2021/03/27 09:12:43;;;;;;;2.50;1.80;;;;;;;;;;5041093;28;20553;-58
2021/03/27 09:15:18;;;;;;;4.60;2.33;;;;;;;;;;5035935;28;20547;-59
2021/03/27 09:18:05;;;;;;;5.13;2.00;;;;;;;;;;5041588;28;20308;-59
2021/03/27 09:20:40;;;;;;;3.40;2.20;;;;;;;;;;5047019;28;20209;-59
2021/03/27 09:23:06;;;;;;;5.67;2.13;;;;;;;;;;5045696;28;20186;-59
2021/03/27 09:25:34;;;;;;;2.90;1.47;;;;;;;;;;5055485;28;20192;-59
2021/03/27 09:28:09;;;;;;;3.23;1.97;;;;;;;;;;5036897;28;20202;-59
2021/03/27 09:30:47;;;;;;;5.87;2.33;;;;;;;;;;5057138;28;20184;-59
2021/03/27 09:33:23;;;;;;;5.07;2.33;;;;;;;;;;5035892;28;20184;-59
2021/03/27 09:36:04;;;;;;;3.77;1.97;;;;;;;;;;5051145;28;20584;-59
2021/03/27 09:38:36;;;;;;;3.47;1.70;;;;;;;;;;5039676;28;20211;-59
2021/03/27 09:41:17;;;;;;;4.47;1.93;;;;;;;;;;5034589;28;20890;-59
2021/03/27 09:44:02;;;;;;;2.70;1.93;;;;;;;;;;5051791;28;20510;-59
2021/03/27 09:46:33;;;;;;;3.73;2.07;;;;;;;;;;5052781;28;20169;-60
2021/03/27 09:49:18;;;;;;;3.63;2.13;;;;;;;;;;5051530;28;20686;-59
2021/03/27 09:51:50;;;;;;;5.33;1.93;;;;;;;;;;5051324;28;20702;-59
2021/03/27 09:54:20;;;;;;;6.57;2.53;;;;;;;;;;5048398;28;20174;-59
2021/03/27 09:57:03;;;;;;;5.50;2.00;;;;;;;;;;5032042;28;20260;-60
2021/03/27 09:59:29;;;;;;;6.70;2.03;;;;;;;;;;5048591;28;20173;-60
2021/03/27 10:02:01;;;;;;;8.30;2.73;;;;;;;;;;5052260;28;20177;-59
2021/03/27 10:04:45;;;;;;;5.17;2.30;;;;;;;;;;5051687;28;20241;-60
2021/03/27 10:07:27;;;;;;;6.33;2.73;;;;;;;;;;5051229;28;20542;-60
2021/03/27 10:09:53;;;;;;;4.70;2.50;;;;;;;;;;5051609;28;20544;-60
2021/03/27 10:12:34;;;;;;;7.63;3.27;;;;;;;;;;5062449;28;20529;-59
2021/03/27 10:15:03;;;;;;;8.40;2.97;;;;;;;;;;5053356;28;20525;-59
2021/03/27 10:17:35;;;;;;;4.73;2.13;;;;;;;;;;5050886;28;20204;-59
2021/03/27 10:20:07;;;;;;;8.10;2.63;;;;;;;;;;5050394;28;20216;-59
2021/03/27 10:22:39;;;;;;;4.63;2.10;;;;;;;;;;5033410;28;20173;-58
2021/03/27 10:25:27;;;;;;;3.33;1.90;;;;;;;;;;5050959;28;20173;-59
2021/03/27 10:27:53;;;;;;;3.87;1.97;;;;;;;;;;5033599;28;20197;-60
2021/03/27 10:30:40;;;;;;;5.13;2.23;;;;;;;;;;5051532;28;20180;-59
2021/03/27 10:33:26;;;;;;;3.83;1.47;;;;;;;;;;5053063;28;20325;-59
2021/03/27 10:36:03;;;;;;;2.30;1.33;;;;;;;;;;5061654;28;20192;-58
2021/03/27 10:38:39;;;;;;;5.07;1.47;;;;;;;;;;5036915;28;20533;-59
2021/03/27 10:41:21;;;;;;;3.10;1.83;;;;;;;;;;5053061;28;20177;-59
2021/03/27 10:44:11;;;;;;;6.47;2.00;;;;;;;;;;5046467;28;20174;-59
2021/03/27 10:46:41;;;;;;;5.20;1.77;;;;;;;;;;5001911;28;20289;-59
2021/03/27 10:49:12;;;;;;;4.07;1.50;;;;;;;;;;5019216;28;20200;-59
2021/03/27 10:51:47;;;;;;;2.07;1.57;;;;;;;;;;5034555;28;20224;-58
2021/03/27 10:54:22;;;;;;;2.63;1.43;;;;;;;;;;5041339;28;20188;-58
2021/03/27 10:57:03;;;;;;;1.80;1.40;;;;;;;;;;5027580;28;20176;-58
2021/03/27 10:59:35;;;;;;;2.03;1.47;;;;;;;;;;5045886;28;20622;-59
2021/03/27 11:02:30;;;;;;;5.77;1.83;;;;;;;;;;5046175;28;20236;-59
2021/03/27 11:05:12;;;;;;;5.30;1.70;;;;;;;;;;5055149;28;20507;-58
2021/03/27 11:07:51;;;;;;;1.60;1.50;;;;;;;;;;5035354;28;20213;-59
2021/03/27 11:10:26;;;;;;;4.47;1.73;;;;;;;;;;5037722;28;20476;-59
2021/03/27 11:13:11;;;;;;;4.43;1.73;;;;;;;;;;5036689;28;20192;-59
2021/03/27 11:15:45;;;;;;;4.10;1.70;;;;;;;;;;5044119;28;20256;-59
2021/03/27 11:18:26;;;;;;;3.37;1.60;;;;;;;;;;5047699;28;20177;-59
2021/03/27 11:21:11;;;;;;;5.97;1.90;;;;;;;;;;5051125;28;20184;-59
2021/03/27 11:23:43;;;;;;;4.23;1.73;;;;;;;;;;5043004;28;20185;-58
2021/03/27 11:26:28;;;;;;;4.57;2.00;;;;;;;;;;5042252;28;20186;-59
2021/03/27 11:29:01;;;;;;;3.53;1.67;;;;;;;;;;5041369;28;20216;-60
2021/03/27 11:31:27;;;;;;;3.53;2.10;;;;;;;;;;5034471;28;20556;-58
2021/03/27 11:34:23;;;;;;;5.30;2.73;;;;;;;;;;5020272;28;20573;-58
2021/03/27 11:36:54;;;;;;;6.00;2.10;;;;;;;;;;5040706;28;20196;-59
2021/03/27 11:39:42;;;;;;;6.77;1.60;;;;;;;;;;5062229;28;20212;-58
2021/03/27 11:42:33;;;;;;;3.53;2.13;;;;;;;;;;5048734;28;20172;-58
2021/03/27 11:45:19;;;;;;;4.23;2.40;;;;;;;;;;5037740;28;20208;-57
2021/03/27 11:48:01;;;;;;;3.47;2.07;;;;;;;;;;5044757;28;20630;-58
2021/03/27 11:50:46;;;;;;;4.80;1.90;;;;;;;;;;5058469;28;20201;-58
2021/03/27 11:53:20;;;;;;;3.77;1.93;;;;;;;;;;5054605;28;20180;-58
2021/03/27 11:55:48;;;;;;;4.07;1.73;;;;;;;;;;5059520;28;20180;-58
2021/03/27 11:58:33;;;;;;;5.27;2.10;;;;;;;;;;5060252;28;20208;-59
2021/03/27 12:01:05;;;;;;;3.97;1.93;;;;;;;;;;5061672;28;20192;-58
2021/03/27 12:03:34;;;;;;;5.70;2.00;;;;;;;;;;5071246;28;20177;-58
2021/03/27 12:06:20;;;;;;;4.50;2.00;;;;;;;;;;5066623;28;20184;-59
2021/03/27 12:08:55;;;;;;;6.13;2.07;;;;;;;;;;5062249;28;20292;-59
2021/03/27 12:11:30;;;;;;;2.97;1.90;;;;;;;;;;5066341;28;20662;-58
2021/03/27 12:14:00;;;;;;;8.13;2.80;;;;;;;;;;5065485;28;20172;-59
2021/03/27 12:16:26;;;;;;;5.87;2.23;;;;;;;;;;5065423;28;20173;-58
2021/03/27 12:18:57;;;;;;;3.43;2.40;;;;;;;;;;5052448;28;20222;-59
2021/03/27 12:21:29;;;;;;;3.03;2.20;;;;;;;;;;5064294;28;20659;-59
2021/03/27 12:24:04;;;;;;;3.37;2.20;;;;;;;;;;5053870;28;20188;-59
2021/03/27 12:26:33;;;;;;;5.53;2.63;;;;;;;;;;5064476;28;21258;-59
2021/03/27 12:29:13;;;;;;;5.23;2.10;;;;;;;;;;5062110;28;20189;-60
2021/03/27 12:32:14;;;;;;;6.43;1.97;;;;;;;;;;5069238;28;20177;-59
2021/03/27 12:34:50;;;;;;;3.83;1.83;;;;;;;;;;5066116;28;20188;-59
2021/03/27 12:37:21;;;;;;;5.60;2.67;;;;;;;;;;5064611;28;20180;-60
2021/03/27 12:39:55;;;;;;;4.30;1.90;;;;;;;;;;5067215;28;20220;-58
2021/03/27 12:42:23;;;;;;;4.93;2.27;;;;;;;;;;5066762;28;20184;-59
2021/03/27 12:44:52;;;;;;;6.43;2.20;;;;;;;;;;5067838;28;20175;-59
2021/03/27 12:47:24;;;;;;;4.57;2.30;;;;;;;;;;5069904;28;20196;-59
2021/03/27 12:49:54;;;;;;;4.80;2.20;;;;;;;;;;5068522;28;20636;-58
2021/03/27 12:52:26;;;;;;;4.97;2.57;;;;;;;;;;5067929;28;20248;-59
2021/03/27 12:55:04;;;;;;;4.93;2.00;;;;;;;;;;5068209;28;20185;-59
2021/03/27 12:57:30;;;;;;;6.13;2.40;;;;;;;;;;5052228;28;20200;-60
2021/03/27 13:00:15;;;;;;;3.63;1.93;;;;;;;;;;5052195;28;20180;-58
2021/03/27 13:03:11;;;;;;;3.17;1.50;;;;;;;;;;5069768;28;20218;-59
2021/03/27 13:05:41;;;;;;;3.80;1.73;;;;;;;;;;4964857;28;20199;-60
2021/03/27 13:08:16;;;;;;;8.90;2.65;;;;;;;;;;5063094;28;20507;-60
2021/03/27 13:10:46;;;;;;;2.17;1.50;;;;;;;;;;5060312;28;20208;-59
2021/03/27 13:13:12;;;;;;;5.70;1.93;;;;;;;;;;5062398;28;20192;-58
2021/03/27 13:16:13;;;;;;;4.50;1.50;;;;;;;;;;5064759;28;20173;-58
2021/03/27 13:18:54;;;;;;;9.87;1.97;;;;;;;;;;4970382;28;20236;-59
2021/03/27 13:21:26;;;;;;;2.47;1.27;;;;;;;;;;5039956;28;20177;-58
2021/03/27 13:23:58;;;;;;;5.43;1.30;;;;;;;;;;5066386;28;20177;-61
2021/03/27 13:26:26;;;;;;;2.47;1.07;;;;;;;;;;5066475;28;20173;-58
2021/03/27 13:28:57;;;;;;;3.00;1.30;;;;;;;;;;5058866;28;20295;-58
2021/03/27 13:31:24;;;;;;;4.77;1.40;;;;;;;;;;5066581;28;20165;-58
2021/03/27 13:34:02;;;;;;;1.83;1.63;;;;;;;;;;5066129;28;20222;-57
2021/03/27 13:36:30;;;;;;;6.73;1.40;;;;;;;;;;5068043;28;20815;-60
2021/03/27 13:39:11;;;;;;;2.20;1.30;;;;;;;;;;5068487;28;20235;-62
2021/03/27 13:41:37;;;;;;;11.00;1.50;;;;;;;;;;5050171;28;20177;-61
2021/03/27 13:44:06;;;;;;;2.53;1.57;;;;;;;;;;5065122;28;20611;-60
2021/03/27 13:46:43;;;;;;;1.87;0.97;;;;;;;;;;5061969;28;20193;-60
2021/03/27 13:49:19;;;;;;;3.13;1.03;;;;;;;;;;5062243;28;20192;-60
2021/03/27 13:51:49;;;;;;;5.23;1.60;;;;;;;;;;5055403;28;20180;-61
2021/03/27 13:54:37;;;;;;;1.93;1.20;;;;;;;;;;5070105;28;20246;-61
2021/03/27 13:57:03;;;;;;;4.83;1.10;;;;;;;;;;5067247;28;20777;-61
2021/03/27 13:59:49;;;;;;;6.07;1.60;;;;;;;;;;5067447;28;20196;-61
2021/03/27 14:02:21;;;;;;;5.20;1.30;;;;;;;;;;5047335;28;20278;-61
2021/03/27 14:04:50;;;;;;;3.83;1.30;;;;;;;;;;5068643;28;20189;-61
2021/03/27 14:07:24;;;;;;;2.87;1.33;;;;;;;;;;5051232;28;20273;-63
2021/03/27 14:09:56;;;;;;;3.93;1.27;;;;;;;;;;5050282;28;20584;-61
2021/03/27 14:12:27;;;;;;;2.80;1.50;;;;;;;;;;5063146;28;20181;-60
2021/03/27 14:15:06;;;;;;;4.03;1.93;;;;;;;;;;5055211;28;20262;-60
2021/03/27 14:17:35;;;;;;;2.87;1.40;;;;;;;;;;5043559;28;20588;-63
2021/03/27 14:20:19;;;;;;;3.90;1.50;;;;;;;;;;5053836;28;20184;-61
2021/03/27 14:23:04;;;;;;;3.77;1.43;;;;;;;;;;5050319;28;20185;-62
2021/03/27 14:25:39;;;;;;;3.03;1.73;;;;;;;;;;5050681;28;20183;-61
2021/03/27 14:28:24;;;;;;;2.37;1.43;;;;;;;;;;5052804;28;20571;-62
2021/03/27 14:31:02;;;;;;;3.33;1.47;;;;;;;;;;5070786;28;20532;-60
2021/03/27 14:33:31;;;;;;;2.50;1.13;;;;;;;;;;5055848;28;20637;-61
2021/03/27 14:36:05;;;;;;;3.27;1.47;;;;;;;;;;5062822;28;20189;-62
2021/03/27 14:38:34;;;;;;;3.40;1.50;;;;;;;;;;5056113;28;20290;-60
2021/03/27 14:41:00;;;;;;;3.17;1.17;;;;;;;;;;5070710;28;20164;-61
2021/03/27 14:43:29;;;;;;;4.77;1.60;;;;;;;;;;5070405;28;20184;-61
2021/03/27 14:46:14;;;;;;;3.53;1.40;;;;;;;;;;5070945;28;20234;-61
2021/03/27 14:48:46;;;;;;;4.83;1.33;;;;;;;;;;5051849;28;20222;-61
2021/03/27 14:51:18;;;;;;;4.00;1.40;;;;;;;;;;5062056;28;20619;-63
2021/03/27 14:53:47;;;;;;;1.87;1.30;;;;;;;;;;5062391;28;20230;-59
2021/03/27 14:56:17;;;;;;;3.00;1.40;;;;;;;;;;5070390;28;20386;-59
2021/03/27 14:58:46;;;;;;;4.03;1.27;;;;;;;;;;5070017;28;20208;-60
2021/03/27 15:01:25;;;;;;;3.10;1.50;;;;;;;;;;5070799;28;20177;-60
2021/03/27 15:03:59;;;;;;;2.57;1.30;;;;;;;;;;5070261;28;20180;-60
2021/03/27 15:06:46;;;;;;;4.20;1.70;;;;;;;;;;5057506;28;20196;-60
2021/03/27 15:09:35;;;;;;;1.50;1.30;;;;;;;;;;5041271;28;20559;-60
2021/03/27 15:12:18;;;;;;;5.50;1.43;;;;;;;;;;5041055;28;20188;-60
2021/03/27 15:14:56;;;;;;;5.40;1.63;;;;;;;;;;5070173;28;20642;-61
2021/03/27 15:17:34;;;;;;;3.23;1.63;;;;;;;;;;5052573;28;20199;-63
2021/03/27 15:20:19;;;;;;;3.93;1.60;;;;;;;;;;5064648;28;20185;-60
2021/03/27 15:22:45;;;;;;;3.43;1.70;;;;;;;;;;5061448;28;20188;-60
2021/03/27 15:28:15;;;;;;;3.23;1.53;;;;;;;;;;5051540;28;20546;-60
2021/03/27 15:30:43;;;;;;;4.23;1.70;;;;;;;;;;5090554;28;20179;-60
2021/03/27 15:33:21;;;;;;;3.63;1.70;;;;;;;;;;5082300;28;20177;-61
2021/03/27 15:36:07;;;;;;;9.83;1.83;;;;;;;;;;5055955;28;20192;-61
2021/03/27 15:38:34;;;;;;;4.33;1.63;;;;;;;;;;5070803;28;20568;-61